Time;durP1;ratioP1;P1;durP2;ratioP2;P2;SDS_P1;SDS_P2;PMS_P1;PMS_P2;Temp;Humidity;BMP_temperature;BMP_pressure;BME280_temperature;BME280_humidity;BME280_pressure;Samples;Min_cycle;Max_cycle;Signal;HPM_P1;HPM_P2
2021/01/09 00:00:59;;;;;;;2.45;0.50;;;23.20;77.60;;;;;;5073143;28;20467;-85
2021/01/09 00:03:26;;;;;;;3.72;0.60;;;23.00;77.80;;;;;;5072996;28;20713;-84
2021/01/09 00:05:55;;;;;;;3.65;0.40;;;22.70;79.00;;;;;;5072581;28;20358;-85
2021/01/09 00:08:22;;;;;;;2.55;0.40;;;22.60;80.30;;;;;;5072480;28;20389;-85
2021/01/09 00:10:50;;;;;;;2.25;0.55;;;22.80;78.10;;;;;;5072161;28;20698;-84
2021/01/09 00:13:17;;;;;;;3.28;0.50;;;22.70;79.10;;;;;;5071861;28;20378;-84
2021/01/09 00:15:44;;;;;;;3.90;0.45;;;22.30;79.20;;;;;;5072169;28;20879;-85
2021/01/09 00:18:11;;;;;;;5.43;1.10;;;22.00;79.30;;;;;;5072174;28;21300;-84
2021/01/09 00:20:39;;;;;;;3.58;0.90;;;21.90;82.10;;;;;;5071793;28;20412;-85
2021/01/09 00:23:06;;;;;;;1.52;0.55;;;22.20;79.40;;;;;;5071820;28;20382;-86
2021/01/09 00:25:33;;;;;;;4.70;0.65;;;22.40;82.00;;;;;;5071627;28;20386;-86
2021/01/09 00:28:00;;;;;;;3.50;0.52;;;22.90;78.30;;;;;;5071702;28;20366;-84
2021/01/09 00:30:27;;;;;;;2.80;0.40;;;23.20;78.70;;;;;;5071646;28;20788;-85
2021/01/09 00:32:54;;;;;;;4.00;0.50;;;23.10;76.50;;;;;;5071462;28;20370;-84
2021/01/09 00:35:21;;;;;;;3.50;0.60;;;22.60;78.80;;;;;;5071670;28;20428;-84
2021/01/09 00:37:48;;;;;;;5.43;0.60;;;22.30;83.20;;;;;;5071697;28;20402;-84
2021/01/09 00:40:15;;;;;;;1.90;0.53;;;22.20;78.30;;;;;;5071373;28;20374;-84
2021/01/09 00:42:44;;;;;;;2.53;0.50;;;22.10;81.60;;;;;;5071234;28;20392;-84
2021/01/09 00:45:12;;;;;;;2.47;0.57;;;22.10;82.10;;;;;;5071451;28;20455;-85
2021/01/09 00:47:39;;;;;;;3.60;0.75;;;22.10;81.20;;;;;;5071179;28;20358;-85
2021/01/09 00:50:07;;;;;;;2.92;0.57;;;22.10;82.50;;;;;;5071156;28;20379;-85
2021/01/09 00:52:34;;;;;;;2.50;0.95;;;22.10;84.00;;;;;;5071393;28;20388;-84
2021/01/09 00:55:01;;;;;;;2.42;0.50;;;22.10;80.20;;;;;;5071767;28;20453;-84
2021/01/09 00:57:28;;;;;;;2.83;0.43;;;22.20;82.50;;;;;;5071655;28;20398;-85
2021/01/09 00:59:55;;;;;;;2.90;0.60;;;22.30;82.00;;;;;;5071657;28;20426;-85
2021/01/09 01:02:22;;;;;;;1.85;0.47;;;22.50;82.80;;;;;;5071298;28;20406;-85
2021/01/09 01:04:49;;;;;;;3.13;0.55;;;22.70;81.70;;;;;;5071162;28;20389;-85
2021/01/09 01:07:16;;;;;;;1.60;0.40;;;22.80;76.40;;;;;;5070872;28;20374;-84
2021/01/09 01:09:43;;;;;;;2.17;0.40;;;22.60;77.10;;;;;;5070805;28;20377;-85
2021/01/09 01:12:10;;;;;;;1.30;0.40;;;22.50;78.40;;;;;;5070678;28;20390;-84
2021/01/09 01:14:37;;;;;;;1.38;0.57;;;22.40;77.90;;;;;;5069463;28;20398;-83
2021/01/09 01:17:05;;;;;;;1.25;0.40;;;22.50;82.10;;;;;;5069461;28;20770;-84
2021/01/09 01:19:32;;;;;;;2.88;0.50;;;22.50;80.90;;;;;;5070812;28;20366;-84
2021/01/09 01:21:59;;;;;;;2.72;0.40;;;22.40;77.30;;;;;;5064993;28;20498;-83
2021/01/09 01:24:26;;;;;;;2.10;0.30;;;22.40;79.50;;;;;;5065817;28;20492;-83
2021/01/09 01:26:53;;;;;;;3.30;0.60;;;22.40;80.60;;;;;;5070604;28;21225;-82
2021/01/09 01:29:20;;;;;;;1.90;0.40;;;22.50;77.80;;;;;;5068560;28;20402;-85
2021/01/09 01:31:47;;;;;;;2.15;0.43;;;22.60;78.40;;;;;;5055334;28;20395;-86
2021/01/09 01:34:14;;;;;;;2.35;0.40;;;22.50;76.10;;;;;;5050416;28;20378;-84
2021/01/09 01:36:47;;;;;;;2.10;0.38;;;22.90;75.00;;;;;;5055920;28;20413;-85
2021/01/09 01:39:14;;;;;;;1.60;0.40;;;23.10;75.80;;;;;;5068942;28;20455;-84
2021/01/09 01:41:41;;;;;;;1.42;0.47;;;23.40;76.30;;;;;;5066181;28;20405;-83
2021/01/09 01:44:09;;;;;;;2.40;0.50;;;23.60;73.90;;;;;;5050193;28;20384;-84
2021/01/09 01:46:36;;;;;;;1.30;0.30;;;23.70;74.70;;;;;;5058671;28;20366;-85
2021/01/09 01:49:05;;;;;;;2.43;0.50;;;23.50;73.90;;;;;;5069599;28;20385;-82
2021/01/09 01:51:32;;;;;;;1.27;0.22;;;23.50;76.30;;;;;;5070209;28;20397;-83
2021/01/09 01:53:59;;;;;;;2.38;0.38;;;23.60;73.40;;;;;;5066699;28;20422;-84
2021/01/09 01:56:27;;;;;;;2.53;0.47;;;23.60;75.60;;;;;;5067918;28;20414;-83
2021/01/09 01:58:55;;;;;;;2.10;0.40;;;23.30;74.70;;;;;;5064072;28;20382;-84
2021/01/09 02:01:23;;;;;;;1.90;0.28;;;23.30;74.20;;;;;;5064889;28;21250;-84
2021/01/09 02:03:50;;;;;;;2.45;0.40;;;23.10;75.50;;;;;;5066895;28;20405;-84
2021/01/09 02:06:23;;;;;;;1.48;0.25;;;23.10;76.30;;;;;;5066519;28;20384;-82
2021/01/09 02:09:01;;;;;;;2.67;0.40;;;23.10;74.20;;;;;;5059050;28;20526;-85
2021/01/09 02:11:43;;;;;;;2.10;0.30;;;23.20;75.00;;;;;;5064208;28;20928;-84
2021/01/09 02:14:18;;;;;;;1.15;0.40;;;23.50;77.60;;;;;;5066252;28;20803;-83
2021/01/09 02:16:45;;;;;;;3.07;0.50;;;23.30;73.60;;;;;;5066590;28;20467;-85
2021/01/09 02:19:14;;;;;;;1.50;0.40;;;23.10;75.70;;;;;;5061328;28;20819;-83
2021/01/09 02:21:42;;;;;;;1.58;0.45;;;22.70;75.30;;;;;;5046466;28;20900;-84
2021/01/09 02:24:15;;;;;;;4.03;0.40;;;22.60;77.50;;;;;;5054488;28;20372;-84
2021/01/09 02:26:42;;;;;;;1.65;0.47;;;22.90;79.90;;;;;;5066177;28;20436;-83
2021/01/09 02:29:13;;;;;;;2.42;0.43;;;23.30;73.50;;;;;;5050157;28;20375;-85
2021/01/09 02:32:00;;;;;;;3.15;0.40;;;23.60;74.20;;;;;;5052470;28;20893;-84
2021/01/09 02:34:41;;;;;;;1.35;0.30;;;23.70;74.00;;;;;;5068107;28;20394;-85
2021/01/09 02:37:10;;;;;;;1.08;0.35;;;23.50;71.20;;;;;;5068227;28;20887;-85
2021/01/09 02:39:38;;;;;;;2.13;0.40;;;23.50;73.40;;;;;;5068024;28;20877;-85
2021/01/09 02:42:05;;;;;;;2.23;0.20;;;23.40;73.60;;;;;;5069121;28;20812;-86
2021/01/09 02:44:32;;;;;;;1.55;0.28;;;23.50;76.40;;;;;;5069420;28;20377;-85
2021/01/09 02:47:00;;;;;;;2.38;0.40;;;23.50;73.60;;;;;;5068323;28;20397;-84
2021/01/09 02:49:27;;;;;;;1.45;0.47;;;23.60;74.70;;;;;;5068876;28;20401;-85
2021/01/09 02:51:54;;;;;;;1.98;0.43;;;23.70;70.50;;;;;;5068902;28;20937;-84
2021/01/09 02:54:21;;;;;;;2.95;0.52;;;23.60;72.40;;;;;;5068913;28;20897;-84
2021/01/09 02:56:48;;;;;;;1.45;0.30;;;23.70;71.50;;;;;;5069034;28;20441;-84
2021/01/09 02:59:15;;;;;;;2.42;0.40;;;23.80;77.30;;;;;;5068877;28;20484;-85
2021/01/09 03:01:42;;;;;;;4.80;0.30;;;23.90;72.60;;;;;;5066396;28;20534;-82
2021/01/09 03:04:09;;;;;;;1.70;0.30;;;23.90;74.10;;;;;;5068427;28;20743;-84
2021/01/09 03:06:36;;;;;;;0.50;0.30;;;24.00;71.70;;;;;;5068180;28;20393;-84
2021/01/09 03:09:06;;;;;;;2.38;0.40;;;23.90;72.40;;;;;;5068727;28;20390;-84
2021/01/09 03:11:33;;;;;;;2.40;0.40;;;23.90;76.00;;;;;;5058828;28;20399;-84
2021/01/09 03:14:01;;;;;;;1.85;0.40;;;24.00;71.60;;;;;;5066310;28;20381;-84
2021/01/09 03:16:28;;;;;;;2.10;0.40;;;23.60;73.20;;;;;;5066735;28;20765;-84
2021/01/09 03:18:55;;;;;;;2.97;0.40;;;23.40;75.40;;;;;;5048889;28;20372;-84
2021/01/09 03:21:22;;;;;;;2.67;0.60;;;23.50;76.90;;;;;;5048746;28;20867;-85
2021/01/09 03:23:49;;;;;;;1.50;0.50;;;23.80;76.00;;;;;;5048802;28;20376;-84
2021/01/09 03:26:17;;;;;;;1.00;0.40;;;23.80;73.20;;;;;;5048700;28;20372;-82
2021/01/09 03:28:44;;;;;;;4.28;0.50;;;23.70;72.20;;;;;;5053837;28;20366;-84
2021/01/09 03:31:11;;;;;;;2.40;0.52;;;23.60;73.70;;;;;;5068448;28;20378;-84
2021/01/09 03:33:38;;;;;;;4.15;0.32;;;23.40;73.00;;;;;;5050234;28;20386;-83
2021/01/09 03:36:06;;;;;;;1.92;0.40;;;23.30;73.90;;;;;;5068288;28;20378;-84
2021/01/09 03:38:33;;;;;;;1.08;0.30;;;23.40;73.70;;;;;;5068576;28;20410;-83
2021/01/09 03:41:00;;;;;;;2.42;0.40;;;23.50;73.40;;;;;;5067707;28;20469;-83
2021/01/09 03:43:27;;;;;;;1.98;0.30;;;23.60;73.80;;;;;;5067853;28;20378;-83
2021/01/09 03:45:54;;;;;;;2.85;0.40;;;23.60;73.90;;;;;;5063828;28;20455;-84
2021/01/09 03:48:21;;;;;;;1.90;0.40;;;23.60;74.40;;;;;;5068814;28;20382;-84
2021/01/09 03:50:48;;;;;;;1.35;0.55;;;23.50;72.10;;;;;;5066975;28;20446;-83
2021/01/09 03:53:16;;;;;;;2.80;0.50;;;23.40;72.20;;;;;;5067099;28;20394;-84
2021/01/09 03:55:43;;;;;;;2.60;0.47;;;23.30;71.10;;;;;;5061642;28;20465;-84
2021/01/09 03:58:10;;;;;;;3.47;0.50;;;23.00;73.20;;;;;;5064839;28;21055;-85
2021/01/09 04:00:37;;;;;;;2.08;0.38;;;23.10;75.50;;;;;;5068060;28;20393;-84
2021/01/09 04:03:04;;;;;;;1.98;0.40;;;23.20;73.40;;;;;;5068262;28;20389;-84
2021/01/09 04:05:31;;;;;;;3.40;0.40;;;23.60;73.40;;;;;;5068136;28;20464;-86
2021/01/09 04:07:58;;;;;;;1.75;0.20;;;23.60;72.20;;;;;;5067969;28;20888;-85
2021/01/09 04:10:25;;;;;;;3.58;0.45;;;23.30;71.60;;;;;;5068083;28;20471;-85
2021/01/09 04:12:52;;;;;;;2.83;0.50;;;23.20;72.30;;;;;;5068016;28;20378;-84
2021/01/09 04:15:19;;;;;;;3.30;0.50;;;23.10;71.80;;;;;;5068147;28;20903;-84
2021/01/09 04:17:46;;;;;;;1.55;0.30;;;23.20;74.40;;;;;;5068241;28;20402;-84
2021/01/09 04:20:13;;;;;;;2.10;0.60;;;23.20;72.00;;;;;;5068045;28;20396;-83
2021/01/09 04:22:40;;;;;;;2.97;0.22;;;23.30;71.00;;;;;;5069879;28;20738;-84
2021/01/09 04:25:08;;;;;;;1.97;0.37;;;23.40;69.70;;;;;;5053774;28;20428;-85
2021/01/09 04:27:35;;;;;;;2.80;0.40;;;23.60;73.20;;;;;;5071588;28;20903;-84
2021/01/09 04:30:03;;;;;;;1.77;0.30;;;23.50;72.40;;;;;;5071940;28;20477;-86
2021/01/09 04:32:30;;;;;;;1.92;0.40;;;23.50;72.30;;;;;;5071666;28;20749;-87
2021/01/09 04:34:57;;;;;;;2.28;0.30;;;23.70;71.30;;;;;;5071781;28;20370;-85
2021/01/09 04:37:24;;;;;;;1.23;0.40;;;23.60;70.60;;;;;;5071254;28;20881;-84
2021/01/09 04:39:51;;;;;;;3.35;0.50;;;23.50;68.10;;;;;;5071426;28;20374;-85
2021/01/09 04:42:19;;;;;;;2.28;0.43;;;23.30;70.60;;;;;;5071321;28;20467;-85
2021/01/09 04:44:47;;;;;;;2.88;0.30;;;23.40;72.70;;;;;;5071364;28;20374;-85
2021/01/09 04:47:15;;;;;;;1.88;0.30;;;23.50;70.70;;;;;;5071989;28;20439;-85
2021/01/09 04:49:42;;;;;;;2.47;0.60;;;23.50;72.00;;;;;;5071284;28;20610;-86
2021/01/09 04:52:11;;;;;;;2.35;0.30;;;23.60;71.70;;;;;;5067504;28;20917;-84
2021/01/09 04:54:41;;;;;;;1.52;0.30;;;23.60;71.00;;;;;;5069985;28;20397;-83
2021/01/09 04:57:08;;;;;;;1.98;0.30;;;23.70;71.20;;;;;;5070970;28;20441;-83
2021/01/09 04:59:37;;;;;;;1.27;0.43;;;23.80;70.40;;;;;;5063047;28;20404;-85
2021/01/09 05:02:05;;;;;;;2.63;0.50;;;23.90;70.70;;;;;;5068040;28;20420;-84
2021/01/09 05:04:33;;;;;;;4.93;1.20;;;23.60;68.50;;;;;;5057227;28;20400;-83
2021/01/09 05:07:00;;;;;;;2.40;0.30;;;23.40;71.80;;;;;;5065571;28;20404;-83
2021/01/09 05:09:27;;;;;;;0.98;0.20;;;23.20;69.80;;;;;;5066974;28;20725;-82
2021/01/09 05:11:57;;;;;;;6.05;1.52;;;23.20;70.70;;;;;;5069204;28;20386;-84
2021/01/09 05:14:26;;;;;;;3.13;0.80;;;23.20;71.10;;;;;;5068491;28;20421;-85
2021/01/09 05:16:55;;;;;;;3.78;0.60;;;23.10;72.10;;;;;;5067477;28;20410;-85
2021/01/09 05:19:30;;;;;;;1.52;0.20;;;23.20;73.20;;;;;;5067835;28;20400;-84
2021/01/09 05:22:01;;;;;;;1.58;0.35;;;23.40;71.00;;;;;;5053677;28;20584;-84
2021/01/09 05:24:28;;;;;;;1.90;0.32;;;23.20;71.10;;;;;;5062191;28;20352;-86
2021/01/09 05:26:55;;;;;;;2.15;0.30;;;23.20;71.30;;;;;;5064800;28;20394;-83
2021/01/09 05:29:23;;;;;;;1.63;0.20;;;23.30;71.00;;;;;;5051929;28;20388;-84
2021/01/09 05:31:50;;;;;;;2.10;0.28;;;23.20;72.20;;;;;;5050355;28;20412;-85
2021/01/09 05:34:17;;;;;;;1.48;0.30;;;23.20;69.40;;;;;;5062148;28;20380;-85
2021/01/09 05:36:44;;;;;;;2.80;0.40;;;22.80;71.20;;;;;;5064273;28;20399;-84
2021/01/09 05:39:11;;;;;;;2.60;0.30;;;22.40;72.90;;;;;;5070515;28;20799;-84
2021/01/09 05:41:42;;;;;;;1.95;0.38;;;22.40;76.30;;;;;;5070236;28;20382;-84
2021/01/09 05:44:11;;;;;;;2.42;0.30;;;22.50;73.10;;;;;;5070584;28;20386;-83
2021/01/09 05:46:40;;;;;;;3.88;0.38;;;22.50;73.20;;;;;;5070190;28;20366;-84
2021/01/09 05:49:08;;;;;;;0.97;0.30;;;22.50;74.30;;;;;;5070712;28;20749;-83
2021/01/09 05:51:40;;;;;;;1.88;0.60;;;22.30;74.60;;;;;;5069755;28;20382;-83
2021/01/09 05:54:08;;;;;;;1.50;0.40;;;22.30;73.90;;;;;;5068404;28;20951;-84
2021/01/09 05:56:41;;;;;;;2.67;0.50;;;22.40;73.30;;;;;;5057201;28;20441;-83
2021/01/09 05:59:09;;;;;;;1.52;0.22;;;22.40;74.00;;;;;;5064711;28;20413;-85
2021/01/09 06:01:38;;;;;;;3.22;0.45;;;22.40;74.20;;;;;;5066154;28;20405;-85
2021/01/09 06:04:15;;;;;;;2.72;0.45;;;22.40;75.30;;;;;;5066298;28;20402;-83
2021/01/09 06:07:07;;;;;;;1.52;0.25;;;22.40;73.90;;;;;;5068774;28;20382;-84
2021/01/09 06:09:55;;;;;;;1.07;0.30;;;22.40;74.90;;;;;;5067406;28;20398;-84
2021/01/09 06:12:23;;;;;;;0.50;0.25;;;22.40;74.60;;;;;;5056493;28;20417;-85
2021/01/09 06:14:51;;;;;;;1.40;0.30;;;22.30;74.50;;;;;;5065097;28;20394;-84
2021/01/09 06:17:20;;;;;;;2.63;0.38;;;22.10;74.00;;;;;;5066021;28;20405;-86
2021/01/09 06:19:48;;;;;;;2.45;0.40;;;22.10;75.00;;;;;;5069699;28;20394;-84
2021/01/09 06:22:17;;;;;;;2.58;0.22;;;22.00;76.20;;;;;;5070284;28;20485;-84
2021/01/09 06:24:44;;;;;;;2.30;0.30;;;22.00;75.60;;;;;;5067608;28;20426;-84
2021/01/09 06:27:21;;;;;;;1.83;0.40;;;22.00;76.20;;;;;;5051215;28;20472;-84
2021/01/09 06:29:50;;;;;;;3.40;0.50;;;22.00;76.00;;;;;;5055664;28;20431;-83
2021/01/09 06:32:27;;;;;;;2.55;0.50;;;21.90;76.50;;;;;;5056594;28;20402;-84
2021/01/09 06:34:55;;;;;;;2.30;0.43;;;21.90;76.30;;;;;;5067660;28;20391;-82
2021/01/09 06:37:23;;;;;;;0.90;0.30;;;21.90;76.60;;;;;;5056467;28;20407;-83
2021/01/09 06:39:52;;;;;;;2.83;0.32;;;21.80;75.60;;;;;;5050264;28;20419;-83
2021/01/09 06:42:20;;;;;;;1.40;0.40;;;21.80;75.70;;;;;;5066232;28;20449;-83
2021/01/09 06:44:54;;;;;;;2.72;0.40;;;21.70;75.40;;;;;;5066676;28;20864;-83
2021/01/09 06:47:39;;;;;;;2.50;0.45;;;21.70;75.50;;;;;;5067048;28;20435;-83
2021/01/09 06:50:27;;;;;;;1.53;0.23;;;21.80;76.70;;;;;;5059176;28;20378;-83
2021/01/09 06:52:54;;;;;;;0.60;0.30;;;21.80;77.10;;;;;;5064129;28;20455;-84
2021/01/09 06:55:39;;;;;;;1.97;0.40;;;21.70;76.40;;;;;;5067207;28;20415;-83
2021/01/09 06:58:14;;;;;;;1.83;0.50;;;21.70;76.60;;;;;;5068903;28;20444;-83
2021/01/09 07:00:41;;;;;;;3.47;0.90;;;21.70;77.40;;;;;;5067296;28;20429;-82
2021/01/09 07:03:22;;;;;;;2.53;0.50;;;21.60;76.80;;;;;;5068959;28;20415;-82
2021/01/09 07:05:51;;;;;;;1.23;0.30;;;21.50;77.50;;;;;;5068815;28;20469;-85
2021/01/09 07:08:23;;;;;;;2.75;0.50;;;21.50;77.60;;;;;;5058575;28;20384;-85
2021/01/09 07:10:59;;;;;;;3.58;0.50;;;21.50;79.00;;;;;;5048902;28;20387;-83
2021/01/09 07:13:27;;;;;;;2.08;0.30;;;21.50;78.20;;;;;;5061935;28;20373;-84
2021/01/09 07:16:07;;;;;;;1.52;0.40;;;21.50;78.70;;;;;;5057417;28;20434;-83
2021/01/09 07:18:39;;;;;;;3.85;0.40;;;21.40;78.10;;;;;;5066392;28;20412;-85
2021/01/09 07:21:07;;;;;;;1.75;0.40;;;21.30;78.30;;;;;;5068738;28;20367;-85
2021/01/09 07:23:35;;;;;;;0.63;0.20;;;21.20;79.00;;;;;;5068700;28;20428;-85
2021/01/09 07:26:09;;;;;;;3.85;0.63;;;21.20;78.00;;;;;;5050716;28;20948;-84
2021/01/09 07:28:37;;;;;;;1.55;0.30;;;21.10;79.50;;;;;;5068472;28;20394;-84
2021/01/09 07:31:11;;;;;;;4.00;0.47;;;21.00;80.20;;;;;;5068637;28;20890;-84
2021/01/09 07:33:38;;;;;;;2.22;0.40;;;21.10;81.10;;;;;;5068691;28;20480;-85
2021/01/09 07:36:06;;;;;;;4.07;0.80;;;21.00;79.70;;;;;;5068755;28;21226;-85
2021/01/09 07:38:33;;;;;;;2.60;0.60;;;21.00;81.70;;;;;;5068453;28;20394;-84
2021/01/09 07:41:01;;;;;;;1.42;0.43;;;21.00;80.70;;;;;;5066052;28;20394;-84
2021/01/09 07:43:45;;;;;;;3.45;0.55;;;20.90;81.80;;;;;;5058691;28;20397;-84
2021/01/09 07:46:32;;;;;;;1.40;0.30;;;20.90;81.30;;;;;;5061851;28;20422;-86
2021/01/09 07:49:03;;;;;;;3.80;0.75;;;20.80;81.70;;;;;;5067363;28;20455;-84
2021/01/09 07:52:04;;;;;;;2.25;0.30;;;20.80;82.70;;;;;;5068347;28;20441;-85
2021/01/09 07:54:42;;;;;;;2.17;0.50;;;20.80;82.80;;;;;;5048702;28;20415;-84
2021/01/09 07:57:19;;;;;;;2.22;0.60;;;20.70;83.60;;;;;;5062357;28;20413;-85
2021/01/09 07:59:55;;;;;;;2.47;0.45;;;20.70;85.40;;;;;;5070526;28;20485;-85
2021/01/09 08:02:25;;;;;;;3.83;0.65;;;20.70;86.90;;;;;;5063636;28;20424;-84
2021/01/09 08:05:28;;;;;;;4.05;0.52;;;20.60;87.40;;;;;;5054000;28;20386;-83
2021/01/09 08:08:00;;;;;;;2.97;0.70;;;20.60;88.40;;;;;;4985638;28;20481;-84
2021/01/09 08:10:31;;;;;;;2.00;0.50;;;20.60;89.90;;;;;;5039641;28;20466;-83
2021/01/09 08:13:04;;;;;;;3.20;0.50;;;20.60;90.40;;;;;;5059304;28;20379;-84
2021/01/09 08:15:33;;;;;;;4.10;0.60;;;20.50;90.70;;;;;;5052195;28;20530;-85
2021/01/09 08:18:02;;;;;;;1.65;0.40;;;20.50;90.80;;;;;;5071185;28;20417;-84
2021/01/09 08:20:30;;;;;;;2.88;0.50;;;20.40;91.10;;;;;;5071772;28;20473;-82
2021/01/09 08:23:01;;;;;;;4.03;0.60;;;20.40;90.70;;;;;;5071540;28;20402;-82
2021/01/09 08:25:30;;;;;;;3.17;0.67;;;20.40;91.10;;;;;;5048533;28;20757;-86
2021/01/09 08:28:00;;;;;;;2.65;0.43;;;20.20;91.70;;;;;;5065991;28;20394;-86
2021/01/09 08:30:29;;;;;;;2.60;0.50;;;20.20;92.20;;;;;;5073401;28;20400;-84
2021/01/09 08:33:16;;;;;;;3.53;0.50;;;20.10;92.30;;;;;;5070166;28;20394;-84
2021/01/09 08:35:53;;;;;;;2.10;0.50;;;20.00;92.20;;;;;;5071052;28;20405;-83
2021/01/09 08:38:28;;;;;;;4.10;0.50;;;20.00;92.10;;;;;;5071221;28;20485;-84
2021/01/09 08:40:59;;;;;;;3.33;0.55;;;20.00;92.20;;;;;;5063297;28;20934;-84
2021/01/09 08:43:27;;;;;;;2.92;0.68;;;19.90;92.30;;;;;;5054323;28;20443;-83
2021/01/09 08:45:55;;;;;;;4.85;0.80;;;19.80;92.70;;;;;;5055943;28;20414;-83
2021/01/09 08:48:23;;;;;;;2.10;0.43;;;19.80;92.90;;;;;;5051952;28;20391;-85
2021/01/09 08:51:00;;;;;;;3.42;0.55;;;19.70;93.20;;;;;;5051452;28;20418;-87
2021/01/09 08:53:54;;;;;;;2.80;0.70;;;19.70;93.50;;;;;;5066609;28;20378;-87
2021/01/09 08:56:23;;;;;;;1.90;0.50;;;19.70;93.70;;;;;;5070007;28;20782;-83
2021/01/09 08:58:54;;;;;;;3.85;0.60;;;19.60;93.80;;;;;;5059993;28;20407;-84
2021/01/09 09:01:48;;;;;;;3.50;0.55;;;19.60;93.90;;;;;;5065316;28;20482;-85
2021/01/09 09:04:18;;;;;;;2.58;0.50;;;19.60;94.10;;;;;;5057254;28;20403;-84
2021/01/09 09:06:48;;;;;;;2.53;0.93;;;19.50;94.00;;;;;;5055598;28;20384;-84
2021/01/09 09:09:16;;;;;;;2.75;0.88;;;19.50;94.00;;;;;;5058847;28;20390;-87
2021/01/09 09:11:53;;;;;;;1.57;0.60;;;19.50;94.20;;;;;;5079869;28;20926;-85
2021/01/09 09:14:25;;;;;;;2.78;0.75;;;19.40;94.40;;;;;;5074407;28;20760;-84
2021/01/09 09:17:00;;;;;;;4.97;1.35;;;19.30;94.50;;;;;;5068049;28;20408;-85
2021/01/09 09:19:27;;;;;;;1.70;1.00;;;19.30;94.70;;;;;;5068050;28;20416;-85
2021/01/09 09:21:59;;;;;;;3.88;1.25;;;19.20;94.90;;;;;;5049488;28;20951;-85
2021/01/09 09:24:40;;;;;;;3.13;0.65;;;19.20;95.20;;;;;;5067736;28;20528;-85
2021/01/09 09:27:20;;;;;;;2.42;0.70;;;19.20;95.20;;;;;;5062831;28;20470;-85
2021/01/09 09:29:47;;;;;;;4.18;0.90;;;19.10;95.60;;;;;;5065903;28;20430;-85
2021/01/09 09:32:26;;;;;;;2.95;0.80;;;19.10;95.90;;;;;;5066243;28;20401;-85
2021/01/09 09:34:54;;;;;;;4.05;0.90;;;19.00;96.00;;;;;;5069344;28;20406;-83
2021/01/09 09:37:22;;;;;;;2.30;0.60;;;18.90;96.30;;;;;;5069001;28;20410;-85
2021/01/09 09:39:58;;;;;;;3.08;0.60;;;18.80;96.40;;;;;;5066545;28;20434;-86
2021/01/09 09:42:28;;;;;;;2.70;0.68;;;18.80;96.60;;;;;;5059614;28;20475;-84
2021/01/09 09:44:55;;;;;;;4.45;0.80;;;18.90;96.70;;;;;;5065534;28;20397;-85
2021/01/09 09:47:27;;;;;;;3.50;0.68;;;18.80;96.90;;;;;;5067735;28;20817;-85
2021/01/09 09:49:59;;;;;;;3.03;0.80;;;18.80;97.20;;;;;;5066105;28;20401;-84
2021/01/09 09:52:26;;;;;;;1.73;0.60;;;18.70;97.50;;;;;;5066058;28;20506;-84
2021/01/09 09:55:09;;;;;;;2.72;0.70;;;18.70;97.90;;;;;;5060912;28;20445;-83
2021/01/09 09:57:56;;;;;;;2.78;0.60;;;18.70;98.30;;;;;;5057766;28;20436;-84
2021/01/09 10:00:32;;;;;;;1.50;0.47;;;18.70;98.40;;;;;;5062915;28;20417;-83
2021/01/09 10:02:59;;;;;;;2.40;0.70;;;18.70;98.50;;;;;;5058521;28;20701;-85
2021/01/09 10:05:27;;;;;;;2.55;0.60;;;18.60;98.90;;;;;;5066356;28;20385;-85
2021/01/09 10:08:18;;;;;;;4.55;0.68;;;18.60;99.00;;;;;;5065638;28;20398;-85
2021/01/09 10:11:00;;;;;;;3.60;0.65;;;18.60;99.20;;;;;;5061351;28;20405;-83
2021/01/09 10:13:28;;;;;;;1.80;0.50;;;18.50;99.20;;;;;;5064969;28;20417;-84
2021/01/09 10:15:59;;;;;;;2.47;0.60;;;18.50;99.50;;;;;;5056233;28;20483;-84
2021/01/09 10:18:35;;;;;;;4.50;0.50;;;18.50;99.60;;;;;;5062954;28;20571;-84
2021/01/09 10:21:03;;;;;;;2.83;0.55;;;18.40;99.70;;;;;;5053214;28;20403;-85
2021/01/09 10:23:30;;;;;;;1.55;0.50;;;18.30;99.80;;;;;;5063305;28;20570;-86
2021/01/09 10:26:00;;;;;;;4.38;0.50;;;18.40;99.90;;;;;;5060861;28;20456;-86
2021/01/09 10:28:31;;;;;;;3.60;0.50;;;18.30;99.90;;;;;;5059804;28;20437;-84
2021/01/09 10:31:04;;;;;;;4.05;0.80;;;18.30;99.90;;;;;;5065799;28;20382;-85
2021/01/09 10:33:32;;;;;;;2.95;0.63;;;18.30;99.90;;;;;;5046953;28;20376;-86
2021/01/09 10:35:59;;;;;;;2.22;0.43;;;18.30;99.90;;;;;;5061103;28;20389;-83
2021/01/09 10:38:28;;;;;;;3.55;0.60;;;18.30;99.90;;;;;;5066300;28;20892;-85
2021/01/09 10:40:55;;;;;;;2.50;0.57;;;18.30;99.90;;;;;;5064594;28;20409;-84
2021/01/09 10:43:22;;;;;;;3.47;0.50;;;18.40;99.90;;;;;;5067535;28;20445;-83
2021/01/09 10:45:49;;;;;;;5.50;0.80;;;18.30;99.90;;;;;;5066145;28;20378;-84
2021/01/09 10:48:16;;;;;;;2.90;0.52;;;18.30;99.90;;;;;;5065700;28;20398;-83
2021/01/09 10:50:43;;;;;;;2.17;0.60;;;18.30;99.90;;;;;;5064220;28;20492;-85
2021/01/09 10:53:16;;;;;;;3.53;0.70;;;18.30;99.90;;;;;;5065087;28;20393;-83
2021/01/09 10:55:43;;;;;;;1.42;0.40;;;18.30;99.90;;;;;;5066342;28;20514;-87
2021/01/09 10:58:10;;;;;;;4.75;0.50;;;18.30;99.90;;;;;;5056930;28;20451;-87
2021/01/09 11:00:37;;;;;;;3.75;0.40;;;18.20;99.90;;;;;;5060910;28;20394;-85
2021/01/09 11:03:04;;;;;;;2.50;0.50;;;18.20;99.90;;;;;;5064708;28;20865;-84
2021/01/09 11:05:34;;;;;;;3.45;0.60;;;18.20;99.90;;;;;;5064998;28;20391;-85
2021/01/09 11:08:04;;;;;;;2.80;0.57;;;18.20;99.90;;;;;;5062247;28;21183;-86
2021/01/09 11:10:31;;;;;;;1.92;0.30;;;18.10;99.90;;;;;;5051353;28;20421;-85
2021/01/09 11:12:58;;;;;;;2.55;0.50;;;18.20;99.90;;;;;;5056271;28;20761;-84
2021/01/09 11:15:25;;;;;;;2.17;0.73;;;18.20;99.90;;;;;;5066037;28;20448;-84
2021/01/09 11:17:52;;;;;;;2.63;0.40;;;18.10;99.90;;;;;;5061659;28;20415;-82
2021/01/09 11:20:19;;;;;;;2.60;0.52;;;18.10;99.90;;;;;;5064910;28;20405;-83
2021/01/09 11:22:46;;;;;;;2.95;0.43;;;18.10;99.90;;;;;;5067093;28;20401;-86
2021/01/09 11:25:13;;;;;;;2.53;0.50;;;18.10;99.90;;;;;;5068368;28;20376;-85
2021/01/09 11:27:41;;;;;;;2.88;0.70;;;18.10;99.90;;;;;;5059815;28;20397;-83
2021/01/09 11:30:09;;;;;;;2.95;0.57;;;18.00;99.90;;;;;;5056653;28;20411;-84
2021/01/09 11:32:36;;;;;;;1.65;0.50;;;18.00;99.90;;;;;;5070192;28;20405;-84
2021/01/09 11:35:04;;;;;;;4.32;0.50;;;17.90;99.90;;;;;;5068164;28;20466;-84
2021/01/09 11:37:31;;;;;;;2.92;0.52;;;17.90;99.90;;;;;;5071064;28;20509;-84
2021/01/09 11:39:58;;;;;;;3.60;0.63;;;17.90;99.90;;;;;;5062810;28;20415;-83
2021/01/09 11:42:25;;;;;;;4.90;0.40;;;17.80;99.90;;;;;;5070549;28;20477;-84
2021/01/09 11:44:52;;;;;;;2.57;0.40;;;17.70;99.90;;;;;;5057556;28;20893;-85
2021/01/09 11:47:19;;;;;;;4.57;1.13;;;17.60;99.90;;;;;;5065399;28;20397;-83
2021/01/09 11:49:46;;;;;;;4.97;0.60;;;17.60;99.90;;;;;;5063094;28;20381;-84
2021/01/09 11:52:13;;;;;;;3.10;0.80;;;17.50;99.90;;;;;;5060554;28;20393;-83
2021/01/09 11:54:40;;;;;;;1.38;0.52;;;17.50;99.90;;;;;;5062828;28;20924;-83
2021/01/09 11:57:07;;;;;;;5.05;0.70;;;17.50;99.90;;;;;;5063135;28;20447;-85
2021/01/09 11:59:34;;;;;;;3.63;0.60;;;17.50;99.90;;;;;;5063546;28;20400;-83
2021/01/09 12:02:01;;;;;;;3.13;0.43;;;17.50;99.90;;;;;;5061089;28;20440;-83
2021/01/09 12:04:28;;;;;;;5.78;0.50;;;17.50;99.90;;;;;;5058460;28;20401;-83
2021/01/09 12:06:59;;;;;;;1.58;0.43;;;17.50;99.90;;;;;;5057983;28;20396;-83
2021/01/09 12:09:26;;;;;;;1.50;0.30;;;17.50;99.90;;;;;;5058301;28;20401;-83
2021/01/09 12:11:56;;;;;;;3.50;0.70;;;17.50;99.90;;;;;;5059190;28;20385;-83
2021/01/09 12:14:24;;;;;;;3.33;0.68;;;17.50;99.90;;;;;;5060374;28;20402;-84
2021/01/09 12:16:51;;;;;;;2.78;0.50;;;17.50;99.90;;;;;;5056531;28;20769;-83
2021/01/09 12:19:24;;;;;;;1.35;0.40;;;17.40;99.90;;;;;;5059822;28;20402;-83
2021/01/09 12:21:55;;;;;;;1.85;0.45;;;17.40;99.90;;;;;;5060581;28;20742;-84
2021/01/09 12:24:22;;;;;;;1.73;0.40;;;17.40;99.90;;;;;;5060980;28;20408;-83
2021/01/09 12:26:56;;;;;;;3.43;0.53;;;17.30;99.90;;;;;;5059674;28;20495;-83
2021/01/09 12:29:23;;;;;;;2.90;1.00;;;17.30;99.90;;;;;;5061244;28;20604;-85
2021/01/09 12:31:50;;;;;;;2.93;0.60;;;17.30;99.90;;;;;;5058521;28;20460;-84
2021/01/09 12:34:18;;;;;;;2.10;0.50;;;17.30;99.90;;;;;;5058370;28;20401;-84
2021/01/09 12:36:49;;;;;;;4.05;0.55;;;17.30;99.90;;;;;;5060728;28;20528;-84
2021/01/09 12:39:16;;;;;;;2.93;0.63;;;17.30;99.90;;;;;;5067469;28;20401;-84
2021/01/09 12:41:43;;;;;;;4.90;0.60;;;17.30;99.90;;;;;;5063011;28;20896;-84
2021/01/09 12:44:11;;;;;;;3.50;0.70;;;17.30;99.90;;;;;;5060574;28;21676;-84
2021/01/09 12:46:46;;;;;;;3.50;0.50;;;17.30;99.90;;;;;;5062908;28;20457;-84
2021/01/09 12:49:18;;;;;;;4.50;0.40;;;17.30;99.90;;;;;;5064048;28;20408;-83
2021/01/09 12:51:47;;;;;;;2.33;0.57;;;17.30;99.90;;;;;;5057181;28;20417;-82
2021/01/09 12:54:14;;;;;;;2.15;0.63;;;17.40;99.90;;;;;;5057625;28;20405;-83
2021/01/09 12:56:41;;;;;;;3.05;0.47;;;17.40;99.90;;;;;;5061576;28;20389;-86
2021/01/09 12:59:11;;;;;;;2.15;0.52;;;17.40;99.90;;;;;;5056896;28;20412;-85
2021/01/09 13:01:43;;;;;;;3.42;0.50;;;17.50;99.90;;;;;;5058745;28;20390;-84